Anton, TX

7:56 AM CDT on September 01, 2015 (GMT -0500)
County Line | | Change Station
CLOSE
Current Station
Personal Weather Station
Location: Shallowater, TX
Elevation: 3383 ft
Nearby Weather Stations

Elev 3383 ft 33.79 °N, 102.04 °W | Updated 13 minutes ago

Clear
Clear
62.8 °F
Feels Like 62.8 °F
N
5.8
Wind Variable Wind from SSE

Today
High -- | Low -- °F
--% Chance of Precip.
Yesterday
High -- | Low -- °F
Precip. -- in
7:22 AM 8:14 PM
Waning Gibbous, 89% visible
Pressure 29.94 in
Visibility 10.0 miles
Clouds Few 26000 ft
Dew Point 56 °F
Humidity 78%
Rainfall 0.00 in
Snow Depth Not available.
UV 0 out of 12
Pollen 8.80 out of 12
Air Quality Not available.
Flu Activity Not available.
METAR KLBB 011253Z 14006KT 10SM FEW260 18/13 A3008 RMK AO2 SLP137 T01830133
Pressure 29.94 in
Visibility 10.0 miles
Clouds Few 26000 ft
Dew Point 56 °F
Humidity 78%
Rainfall 0.00 in
Snow Depth Not available.
UV 0 out of 12
Pollen 8.80 out of 12
Air Quality Not available.
Flu Activity Not available.
METAR KLBB 011253Z 14006KT 10SM FEW260 18/13 A3008 RMK AO2 SLP137 T01830133

10-Day Weather Forecast

×

Almanac

Astronomy

Sep. 01, 2015 Rise Set
Actual Time
Civil Twilight
Nautical Twilight
Astronomical Twilight
Moon
Length of Visible Light
Length of Day
Tomorrow will be .
, % of the Moon is Illuminated

Today's Extremes

State Highs State Lows

Community

WunderPhotos

Upload Photos

1,851,510 photos uploaded!

WunderBlogs® & News

Nearby

Air Quality

  Air Quality AQ Index Pollutant
Not available.

Snow Depth

Station Depth Elevation

Earthquake Activity

City Distance Mag. Time & Date
Minimum magnitude displayed is 2.5.

Coastal Water Temperatures

Place Temperature

Stations

Nearby Weather Stations

Station Location Temp. Windchill Dew Point Humidity Wind Precip. Elev Updated Type